createdAt,value
2019-01-05T00:01:09.628Z,95.45
2019-01-05T00:03:57.680Z,95.52
2019-01-05T00:06:45.224Z,95.67
2019-01-05T00:09:44.419Z,95.61
2019-01-05T00:12:47.264Z,95.68
2019-01-05T00:15:34.924Z,95.75
2019-01-05T00:18:37.152Z,95.80
2019-01-05T00:21:39.843Z,95.82
2019-01-05T00:24:29.047Z,95.84
2019-01-05T00:27:16.772Z,95.66
2019-01-05T00:30:04.954Z,95.46
2019-01-05T00:33:00.812Z,95.46
2019-01-05T00:36:04.778Z,95.42
2019-01-05T00:39:05.903Z,95.53
2019-01-05T00:42:01.608Z,95.56
2019-01-05T00:44:50.885Z,95.47
2019-01-05T00:47:58.055Z,95.23
2019-01-05T00:51:04.924Z,95.19
2019-01-05T00:54:04.067Z,95.12
2019-01-05T00:56:51.454Z,95.20
2019-01-05T00:59:41.157Z,95.22
2019-01-05T01:02:33.244Z,95.11
2019-01-05T01:05:28.079Z,95.10
2019-01-05T01:08:16.021Z,94.89
2019-01-05T01:10:55.530Z,94.83
2019-01-05T01:13:43.430Z,94.81
2019-01-05T01:16:31.656Z,94.86
2019-01-05T01:19:21.120Z,94.85
2019-01-05T01:22:25.725Z,94.76
2019-01-05T01:25:19.503Z,94.74
2019-01-05T01:28:14.771Z,94.76
2019-01-05T01:31:15.713Z,94.75
2019-01-05T01:34:02.544Z,94.75
2019-01-05T01:36:50.625Z,94.82
2019-01-05T01:40:00.220Z,94.92
2019-01-05T01:42:48.108Z,95.00
2019-01-05T01:45:51.927Z,95.06
2019-01-05T01:48:41.439Z,95.18
2019-01-05T01:51:30.948Z,95.26
2019-01-05T01:54:29.476Z,95.41
2019-01-05T01:57:26.161Z,95.55
2019-01-05T02:00:27.679Z,95.58
2019-01-05T02:03:17.404Z,95.79
2019-01-05T02:06:07.342Z,95.93
2019-01-05T02:09:01.810Z,95.99
2019-01-05T02:12:11.705Z,96.07
2019-01-05T02:15:15.960Z,96.23
2019-01-05T02:18:21.500Z,96.43
2019-01-05T02:21:43.831Z,96.56
2019-01-05T02:25:03.080Z,96.68
2019-01-05T02:28:32.533Z,96.80
2019-01-05T02:32:11.990Z,96.87
2019-01-05T02:35:17.388Z,96.98
2019-01-05T02:38:49.252Z,97.11
2019-01-05T02:42:28.330Z,97.12
2019-01-05T02:45:52.760Z,97.13
2019-01-05T02:49:29.595Z,97.21
2019-01-05T02:53:02.860Z,97.19
2019-01-05T02:56:41.112Z,97.23
2019-01-05T03:00:00.833Z,97.28
2019-01-05T03:03:30.302Z,97.29
2019-01-05T03:07:04.859Z,97.39
2019-01-05T03:10:35.331Z,97.44
2019-01-05T03:13:52.061Z,97.53
2019-01-05T03:17:16.895Z,97.53
2019-01-05T03:20:49.934Z,97.57
2019-01-05T03:24:12.329Z,97.65
2019-01-05T03:27:50.319Z,97.66
2019-01-05T03:31:11.162Z,97.80
2019-01-05T03:34:37.458Z,97.82
2019-01-05T03:38:11.058Z,97.97
2019-01-05T03:41:32.385Z,97.98
2019-01-05T03:45:04.944Z,97.97
2019-01-05T03:48:29.611Z,98.08
2019-01-05T03:52:12.987Z,98.29
2019-01-05T03:55:54.310Z,98.45
2019-01-05T03:59:02.039Z,98.63
2019-01-05T04:02:15.787Z,98.70
2019-01-05T04:05:36.420Z,98.82
2019-01-05T04:09:14.439Z,98.89
2019-01-05T04:12:48.249Z,98.90
2019-01-05T04:16:36.687Z,99.08
2019-01-05T04:20:13.566Z,99.21
2019-01-05T04:23:25.491Z,99.20
2019-01-05T04:27:00.874Z,99.20
2019-01-05T04:30:40.483Z,99.27
2019-01-05T04:34:11.375Z,99.36
2019-01-05T04:37:42.196Z,99.45
2019-01-05T04:40:54.528Z,99.52
2019-01-05T04:44:25.167Z,99.68
2019-01-05T04:47:39.458Z,99.85
2019-01-05T04:50:57.626Z,99.97
2019-01-05T04:54:15.897Z,100.00
2019-01-05T04:58:06.089Z,100.00
2019-01-05T05:01:29.842Z,100.00
2019-01-05T05:04:50.445Z,100.00
2019-01-05T05:08:12.375Z,100.00
2019-01-05T05:11:40.799Z,100.00
2019-01-05T05:15:03.868Z,100.00
2019-01-05T05:18:39.681Z,100.00
2019-01-05T05:22:19.162Z,100.00
2019-01-05T05:25:43.677Z,100.00
2019-01-05T05:29:14.572Z,100.00
2019-01-05T05:32:55.764Z,100.00
2019-01-05T05:36:26.081Z,100.00
2019-01-05T05:40:09.819Z,100.00
2019-01-05T05:43:49.664Z,100.00
2019-01-05T05:47:16.649Z,100.00
2019-01-05T05:50:56.963Z,100.00
2019-01-05T05:54:15.246Z,100.00
2019-01-05T05:58:02.206Z,100.00
2019-01-05T06:01:50.596Z,100.00
2019-01-05T06:05:08.462Z,100.00
2019-01-05T06:08:34.081Z,100.00
2019-01-05T06:12:04.703Z,100.00
2019-01-05T06:15:32.489Z,100.00
2019-01-05T06:19:00.231Z,100.00
2019-01-05T06:22:25.909Z,100.00
2019-01-05T06:25:50.986Z,100.00
2019-01-05T06:29:19.218Z,100.00
2019-01-05T06:32:59.693Z,100.00
2019-01-05T06:36:33.210Z,100.00
2019-01-05T06:40:10.353Z,100.00
2019-01-05T06:43:48.308Z,100.00
2019-01-05T06:47:12.329Z,100.00
2019-01-05T06:51:02.971Z,100.00
2019-01-05T06:54:28.852Z,100.00
2019-01-05T06:57:48.642Z,100.00
2019-01-05T07:01:20.851Z,100.00
2019-01-05T07:04:26.388Z,100.00
2019-01-05T07:07:57.271Z,100.00
2019-01-05T07:11:25.112Z,100.00
2019-01-05T07:14:45.574Z,100.00
2019-01-05T07:18:34.520Z,100.00
2019-01-05T07:22:13.315Z,100.00
2019-01-05T07:25:47.558Z,100.00
2019-01-05T07:29:22.734Z,100.00
2019-01-05T07:32:58.330Z,100.00
2019-01-05T07:36:26.576Z,100.00
2019-01-05T07:40:12.468Z,100.00
2019-01-05T07:43:42.810Z,100.00
2019-01-05T07:47:23.772Z,100.00
2019-01-05T07:51:10.467Z,100.00
2019-01-05T07:54:41.119Z,100.00
2019-01-05T07:58:05.100Z,100.00
2019-01-05T08:01:33.692Z,100.00
2019-01-05T08:04:48.204Z,100.00
2019-01-05T08:08:25.643Z,100.00
2019-01-05T08:11:49.627Z,100.00
2019-01-05T08:15:14.259Z,100.00
2019-01-05T08:18:42.710Z,100.00
2019-01-05T08:22:36.416Z,100.00
2019-01-05T08:26:11.064Z,100.00
2019-01-05T08:29:31.839Z,100.00
2019-01-05T08:33:16.299Z,100.00
2019-01-05T08:36:38.167Z,100.00
2019-01-05T08:40:20.439Z,100.00
2019-01-05T08:44:05.005Z,100.00
2019-01-05T08:47:32.164Z,100.00
2019-01-05T08:51:14.090Z,100.00
2019-01-05T08:54:46.900Z,100.00
2019-01-05T08:58:12.695Z,100.00
2019-01-05T09:01:47.254Z,100.00
2019-01-05T09:05:07.600Z,100.00
2019-01-05T09:08:39.992Z,100.00
2019-01-05T09:12:39.556Z,100.00
2019-01-05T09:16:06.336Z,100.00
2019-01-05T09:19:59.269Z,100.00
2019-01-05T09:23:22.166Z,100.00
2019-01-05T09:27:01.399Z,100.00
2019-01-05T09:30:35.940Z,100.00
2019-01-05T09:34:00.433Z,100.00
2019-01-05T09:37:25.208Z,100.00
2019-01-05T09:41:22.025Z,100.00
2019-01-05T09:44:50.562Z,100.00
2019-01-05T09:48:13.735Z,100.00
2019-01-05T09:51:27.503Z,100.00
2019-01-05T09:55:00.158Z,100.00
2019-01-05T09:58:31.212Z,100.00
2019-01-05T10:02:02.682Z,100.00
2019-01-05T10:05:23.810Z,100.00
2019-01-05T10:08:51.146Z,100.00
2019-01-05T10:12:10.163Z,100.00
2019-01-05T10:15:28.747Z,100.00
2019-01-05T10:19:03.294Z,100.00
2019-01-05T10:22:09.696Z,100.00
2019-01-05T10:25:52.921Z,100.00
2019-01-05T10:29:16.195Z,100.00
2019-01-05T10:32:51.020Z,100.00
2019-01-05T10:36:29.539Z,100.00
2019-01-05T10:39:52.057Z,100.00
2019-01-05T10:43:23.223Z,100.00
2019-01-05T10:46:48.296Z,100.00
2019-01-05T10:50:13.246Z,100.00
2019-01-05T10:53:56.496Z,100.00
2019-01-05T10:57:28.848Z,100.00
2019-01-05T11:01:03.835Z,100.00
2019-01-05T11:04:23.157Z,100.00
2019-01-05T11:07:45.428Z,100.00
2019-01-05T11:11:03.758Z,100.00
2019-01-05T11:14:35.977Z,100.00
2019-01-05T11:18:06.947Z,100.00
2019-01-05T11:21:40.775Z,100.00
2019-01-05T11:25:25.784Z,100.00
2019-01-05T11:28:58.323Z,100.00
2019-01-05T11:32:12.181Z,100.00
2019-01-05T11:35:52.834Z,100.00
2019-01-05T11:39:38.861Z,100.00
2019-01-05T11:42:57.533Z,100.00
2019-01-05T11:46:16.050Z,100.00
2019-01-05T11:49:34.840Z,100.00
2019-01-05T11:53:10.027Z,100.00
2019-01-05T11:56:27.944Z,100.00
2019-01-05T11:59:55.922Z,100.00
2019-01-05T12:03:14.079Z,100.00
2019-01-05T12:06:48.624Z,100.00
2019-01-05T12:10:47.146Z,100.00
2019-01-05T12:14:27.083Z,100.00
2019-01-05T12:17:47.410Z,100.00
2019-01-05T12:21:12.319Z,100.00
2019-01-05T12:25:02.843Z,100.00
2019-01-05T12:28:30.043Z,100.00
2019-01-05T12:32:06.791Z,100.00
2019-01-05T12:35:38.523Z,100.00
2019-01-05T12:39:10.318Z,100.00
2019-01-05T12:42:51.341Z,100.00
2019-01-05T12:49:57.042Z,100.00
2019-01-05T12:53:42.070Z,100.00
2019-01-05T12:57:15.727Z,100.00
2019-01-05T13:00:50.580Z,100.00
2019-01-05T13:04:20.819Z,100.00
2019-01-05T13:08:17.057Z,100.00
2019-01-05T13:11:31.301Z,100.00
2019-01-05T13:14:49.211Z,100.00
2019-01-05T13:18:29.480Z,100.00
2019-01-05T13:22:06.472Z,100.00
2019-01-05T13:25:22.380Z,100.00
2019-01-05T13:28:47.501Z,100.00
2019-01-05T13:32:22.411Z,100.00
2019-01-05T13:36:00.197Z,100.00
2019-01-05T13:39:57.583Z,100.00
2019-01-05T13:43:29.356Z,100.00
2019-01-05T13:46:51.296Z,100.00
2019-01-05T13:50:21.361Z,100.00
2019-01-05T13:53:46.287Z,100.00
2019-01-05T13:56:40.599Z,100.00
2019-01-05T13:59:33.427Z,100.00
2019-01-05T14:02:21.233Z,100.00
2019-01-05T14:05:09.032Z,100.00
2019-01-05T14:08:01.362Z,100.00
2019-01-05T14:10:51.774Z,100.00
2019-01-05T14:13:39.635Z,100.00
2019-01-05T14:16:27.219Z,100.00
2019-01-05T14:19:24.453Z,100.00
2019-01-05T14:22:12.403Z,100.00
2019-01-05T14:25:09.433Z,100.00
2019-01-05T14:27:58.589Z,100.00
2019-01-05T14:30:47.866Z,99.97
2019-01-05T14:33:48.720Z,99.90
2019-01-05T14:36:52.735Z,99.94
2019-01-05T14:40:00.364Z,100.00
2019-01-05T14:42:43.882Z,100.00
2019-01-05T14:45:42.005Z,100.00
2019-01-05T14:48:34.313Z,100.00
2019-01-05T14:51:22.123Z,100.00
2019-01-05T14:54:16.956Z,100.00
2019-01-05T14:57:18.309Z,100.00
2019-01-05T15:00:10.007Z,100.00
2019-01-05T15:03:09.180Z,100.00
2019-01-05T15:06:10.894Z,100.00
2019-01-05T15:08:59.801Z,100.00
2019-01-05T15:14:30.183Z,100.00
2019-01-05T15:17:21.871Z,100.00
2019-01-05T15:20:09.805Z,100.00
2019-01-05T15:23:08.441Z,100.00
2019-01-05T15:25:56.138Z,100.00
2019-01-05T15:28:44.041Z,99.87
2019-01-05T15:31:31.652Z,99.90
2019-01-05T15:34:19.450Z,99.64
2019-01-05T15:37:07.264Z,99.68
2019-01-05T15:39:55.265Z,99.70
2019-01-05T15:42:44.222Z,99.59
2019-01-05T15:45:42.170Z,99.73
2019-01-05T15:48:35.177Z,99.80
2019-01-05T15:51:23.221Z,99.82
2019-01-05T15:54:22.546Z,99.86
2019-01-05T15:57:10.595Z,99.87
2019-01-05T15:59:54.844Z,99.84
2019-01-05T16:02:42.603Z,99.82
2019-01-05T16:05:30.335Z,99.89
2019-01-05T16:08:26.849Z,99.96
2019-01-05T16:11:14.651Z,99.89
2019-01-05T16:14:08.545Z,99.85
2019-01-05T16:16:59.768Z,99.70
2019-01-05T16:19:52.307Z,99.53
2019-01-05T16:22:41.111Z,99.40
2019-01-05T16:25:39.090Z,99.31
2019-01-05T16:28:27.952Z,99.38
2019-01-05T16:31:17.109Z,99.57
2019-01-05T16:34:04.938Z,99.67
2019-01-05T16:36:56.083Z,99.67
2019-01-05T16:39:57.572Z,99.51
2019-01-05T16:42:45.209Z,99.59
2019-01-05T16:45:43.237Z,99.35
2019-01-05T16:48:31.002Z,99.26
2019-01-05T16:51:20.160Z,99.39
2019-01-05T16:54:19.349Z,99.48
2019-01-05T16:57:27.396Z,99.45
2019-01-05T17:00:15.186Z,99.34
2019-01-05T17:03:02.445Z,99.29
2019-01-05T17:05:51.806Z,99.50
2019-01-05T17:08:46.937Z,99.64
2019-01-05T17:11:41.918Z,99.73
2019-01-05T17:14:29.960Z,99.79
2019-01-05T17:17:18.480Z,99.83
2019-01-05T17:20:06.262Z,99.82
2019-01-05T17:23:07.607Z,99.75
2019-01-05T17:26:09.062Z,99.68
2019-01-05T17:28:56.778Z,99.84
2019-01-05T17:31:57.751Z,99.65
2019-01-05T17:34:48.288Z,99.66
2019-01-05T17:37:36.501Z,99.51
2019-01-05T17:40:24.509Z,99.63
2019-01-05T17:43:23.814Z,99.59
2019-01-05T17:46:12.736Z,99.61
2019-01-05T17:49:02.762Z,99.68
2019-01-05T17:52:01.449Z,99.62
2019-01-05T17:55:02.352Z,99.67
2019-01-05T17:57:51.226Z,99.67
2019-01-05T18:00:38.946Z,99.61
2019-01-05T18:03:33.767Z,99.69
2019-01-05T18:06:19.416Z,99.55
2019-01-05T18:09:07.014Z,99.64
2019-01-05T18:11:54.596Z,99.69
2019-01-05T18:14:46.753Z,99.71
2019-01-05T18:17:47.898Z,99.70
2019-01-05T18:20:39.797Z,99.68
2019-01-05T18:23:35.237Z,99.47
2019-01-05T18:26:27.479Z,99.42
2019-01-05T18:29:15.194Z,99.38
2019-01-05T18:32:22.900Z,99.33
2019-01-05T18:35:21.005Z,98.93
2019-01-05T18:38:08.512Z,99.19
2019-01-05T18:40:59.442Z,99.24
2019-01-05T18:43:48.357Z,99.27
2019-01-05T18:46:40.469Z,99.26
2019-01-05T18:49:38.628Z,99.24
2019-01-05T18:52:33.159Z,99.28
2019-01-05T18:55:20.550Z,99.30
2019-01-05T18:58:17.848Z,99.38
2019-01-05T19:01:06.065Z,98.98
2019-01-05T19:03:54.259Z,99.04
2019-01-05T19:06:42.085Z,98.94
2019-01-05T19:09:30.225Z,98.91
2019-01-05T19:12:18.861Z,98.84
2019-01-05T19:15:16.778Z,98.92
2019-01-05T19:18:03.184Z,98.99
2019-01-05T19:20:51.185Z,99.06
2019-01-05T19:23:43.868Z,99.21
2019-01-05T19:26:31.444Z,99.27
2019-01-05T19:29:19.720Z,99.21
2019-01-05T19:32:08.665Z,99.01
2019-01-05T19:34:56.587Z,99.10
2019-01-05T19:37:45.772Z,99.26
2019-01-05T19:40:41.503Z,99.23
2019-01-05T19:43:30.565Z,99.17
2019-01-05T19:46:13.530Z,99.17
2019-01-05T19:49:09.572Z,99.18
2019-01-05T19:52:02.596Z,99.19
2019-01-05T19:54:50.563Z,99.32
2019-01-05T19:57:54.792Z,99.28
2019-01-05T20:00:56.354Z,99.36
2019-01-05T20:03:44.207Z,99.36
2019-01-05T20:06:39.418Z,99.20
2019-01-05T20:09:28.363Z,99.22
2019-01-05T20:12:23.977Z,99.23
2019-01-05T20:15:18.830Z,99.34
2019-01-05T20:18:06.356Z,99.38
2019-01-05T20:20:50.188Z,99.32
2019-01-05T20:23:38.132Z,99.33
2019-01-05T20:26:23.834Z,99.22
2019-01-05T20:29:13.604Z,99.20
2019-01-05T20:32:01.528Z,99.33
2019-01-05T20:34:49.391Z,99.35
2019-01-05T20:37:47.744Z,99.23
2019-01-05T20:40:43.225Z,99.26
2019-01-05T20:43:39.864Z,99.38
2019-01-05T20:46:27.579Z,99.42
2019-01-05T20:49:15.736Z,99.53
2019-01-05T20:52:23.855Z,99.37
2019-01-05T20:55:11.345Z,99.24
2019-01-05T20:58:07.883Z,99.19
2019-01-05T21:00:52.678Z,99.24
2019-01-05T21:03:53.814Z,99.30
2019-01-05T21:06:42.012Z,99.35
2019-01-05T21:09:33.968Z,99.19
2019-01-05T21:12:21.738Z,99.19
2019-01-05T21:15:10.747Z,99.19
2019-01-05T21:17:59.681Z,99.09
2019-01-05T21:21:00.782Z,99.10
2019-01-05T21:23:48.309Z,99.10
2019-01-05T21:26:40.827Z,99.26
2019-01-05T21:29:35.893Z,99.10
2019-01-05T21:32:30.895Z,99.04
2019-01-05T21:35:21.632Z,99.16
2019-01-05T21:38:19.591Z,99.16
2019-01-05T21:41:17.348Z,99.03
2019-01-05T21:44:05.159Z,98.91
2019-01-05T21:47:09.544Z,98.94
2019-01-05T21:49:57.322Z,98.94
2019-01-05T21:53:01.451Z,98.94
2019-01-05T21:55:50.465Z,98.79
2019-01-05T21:58:43.133Z,98.81
2019-01-05T22:01:31.873Z,98.73
2019-01-05T22:04:19.712Z,98.78
2019-01-05T22:07:13.443Z,98.77
2019-01-05T22:10:02.318Z,98.48
2019-01-05T22:12:51.484Z,98.54
2019-01-05T22:15:39.348Z,98.62
2019-01-05T22:18:27.018Z,98.69
2019-01-05T22:21:16.467Z,98.65
2019-01-05T22:24:23.875Z,98.38
2019-01-05T22:27:11.691Z,98.16
2019-01-05T22:29:52.520Z,98.17
2019-01-05T22:32:59.917Z,98.03
2019-01-05T22:35:58.150Z,98.11
2019-01-05T22:38:43.779Z,98.19
2019-01-05T22:41:31.733Z,97.89
2019-01-05T22:44:19.367Z,97.67
2019-01-05T22:47:11.239Z,97.84
2019-01-05T22:49:58.759Z,97.63
2019-01-05T22:53:00.068Z,97.62
2019-01-05T22:55:58.585Z,97.42
2019-01-05T22:58:56.649Z,97.61
2019-01-05T23:01:45.473Z,97.66
2019-01-05T23:04:37.358Z,97.16
2019-01-05T23:07:44.724Z,96.73
2019-01-05T23:10:42.582Z,96.67
2019-01-05T23:13:34.268Z,96.91
2019-01-05T23:16:23.192Z,96.63
2019-01-05T23:19:09.012Z,96.47
2019-01-05T23:22:04.014Z,96.58
2019-01-05T23:24:49.966Z,96.29
2019-01-05T23:27:37.966Z,96.20
2019-01-05T23:30:26.405Z,96.33
2019-01-05T23:33:14.175Z,96.32
2019-01-05T23:36:21.443Z,96.25
2019-01-05T23:39:29.062Z,96.18
2019-01-05T23:42:15.017Z,95.91
2019-01-05T23:45:07.959Z,95.85
2019-01-05T23:48:09.557Z,95.81
2019-01-05T23:51:10.510Z,95.66
2019-01-05T23:53:57.900Z,95.66
2019-01-05T23:56:46.679Z,95.78
2019-01-05T23:59:42.774Z,95.55
